createdAt,value
2023-02-14T00:01:13.203Z,8.55
2023-02-14T00:03:40.170Z,8.30
2023-02-14T00:06:13.772Z,8.82
2023-02-14T00:08:44.712Z,8.85
2023-02-14T00:11:13.510Z,8.90
2023-02-14T00:14:00.471Z,8.80
2023-02-14T00:16:27.477Z,7.93
2023-02-14T00:19:03.222Z,8.07
2023-02-14T00:21:33.024Z,8.30
2023-02-14T00:23:59.887Z,8.95
2023-02-14T00:26:26.753Z,7.70
2023-02-14T00:28:53.714Z,7.85
2023-02-14T00:31:20.771Z,7.45
2023-02-14T00:33:48.498Z,7.80
2023-02-14T00:36:17.762Z,7.03
2023-02-14T00:38:44.770Z,6.55
2023-02-14T00:41:19.084Z,6.57
2023-02-14T00:43:52.618Z,6.22
2023-02-14T00:46:22.814Z,5.80
2023-02-14T00:48:50.683Z,6.05
2023-02-14T00:51:19.312Z,6.13
2023-02-14T00:53:48.346Z,6.40
2023-02-14T00:56:16.162Z,6.47
2023-02-14T00:58:43.568Z,6.03
2023-02-14T01:01:12.213Z,6.65
2023-02-14T01:03:39.591Z,6.90
2023-02-14T01:06:07.304Z,6.95
2023-02-14T01:08:34.964Z,6.90
2023-02-14T01:11:20.632Z,6.43
2023-02-14T01:13:50.306Z,6.20
2023-02-14T01:16:22.363Z,6.60
2023-02-14T01:18:49.859Z,7.00
2023-02-14T01:21:22.835Z,6.18
2023-02-14T01:23:53.552Z,6.15
2023-02-14T01:26:22.639Z,6.93
2023-02-14T01:28:49.826Z,7.25
2023-02-14T01:31:21.537Z,6.63
2023-02-14T01:33:50.654Z,6.90
2023-02-14T01:36:28.250Z,6.18
2023-02-14T01:39:04.532Z,6.25
2023-02-14T01:41:34.832Z,6.18
2023-02-14T01:44:16.726Z,6.13
2023-02-14T01:46:46.086Z,6.00
2023-02-14T01:49:25.589Z,6.07
2023-02-14T01:52:28.702Z,6.20
2023-02-14T01:55:03.348Z,5.30
2023-02-14T01:58:01.845Z,7.32
2023-02-14T02:00:47.771Z,6.10
2023-02-14T02:03:19.166Z,5.80
2023-02-14T02:05:53.523Z,5.90
2023-02-14T02:08:20.858Z,6.45
2023-02-14T02:10:47.861Z,6.32
2023-02-14T02:13:21.399Z,6.88
2023-02-14T02:16:05.165Z,6.30
2023-02-14T02:19:26.831Z,5.90
2023-02-14T02:22:35.083Z,6.13
2023-02-14T02:25:16.919Z,6.43
2023-02-14T02:28:17.890Z,5.30
2023-02-14T02:31:42.939Z,6.03
2023-02-14T02:34:34.636Z,5.88
2023-02-14T02:37:29.956Z,5.93
2023-02-14T02:40:48.681Z,5.90
2023-02-14T02:44:03.792Z,5.55
2023-02-14T02:46:59.197Z,5.43
2023-02-14T02:50:24.809Z,5.65
2023-02-14T02:53:11.839Z,6.13
2023-02-14T02:56:10.764Z,5.28
2023-02-14T02:58:50.098Z,5.50
2023-02-14T03:01:23.514Z,5.85
2023-02-14T03:04:16.973Z,5.18
2023-02-14T03:06:46.064Z,4.93
2023-02-14T03:09:20.250Z,5.88
2023-02-14T03:12:11.374Z,5.15
2023-02-14T03:14:51.844Z,5.03
2023-02-14T03:17:56.302Z,5.60
2023-02-14T03:20:38.630Z,5.20
2023-02-14T03:23:48.697Z,4.72
2023-02-14T03:26:27.261Z,5.60
2023-02-14T03:29:06.016Z,4.65
2023-02-14T03:31:49.952Z,5.22
2023-02-14T03:34:28.348Z,5.47
2023-02-14T03:37:07.065Z,5.60
2023-02-14T03:40:15.649Z,5.70
2023-02-14T03:43:10.286Z,5.05
2023-02-14T03:46:06.306Z,5.05
2023-02-14T03:48:36.710Z,5.90
2023-02-14T03:51:08.562Z,4.93
2023-02-14T03:53:40.111Z,5.88
2023-02-14T03:56:23.636Z,6.28
2023-02-14T03:58:55.900Z,5.60
2023-02-14T04:01:47.094Z,6.47
2023-02-14T04:04:22.300Z,5.65
2023-02-14T04:06:49.224Z,6.15
2023-02-14T04:09:16.171Z,6.70
2023-02-14T04:11:43.363Z,5.22
2023-02-14T04:14:10.345Z,5.55
2023-02-14T04:16:57.224Z,5.88
2023-02-14T04:19:24.194Z,5.90
2023-02-14T04:21:52.905Z,6.00
2023-02-14T04:24:20.392Z,6.00
2023-02-14T04:27:12.174Z,5.85
2023-02-14T04:29:49.855Z,5.43
2023-02-14T04:32:22.499Z,5.90
2023-02-14T04:34:49.947Z,5.43
2023-02-14T04:37:19.656Z,5.88
2023-02-14T04:39:47.088Z,5.55
2023-02-14T04:42:14.313Z,5.80
2023-02-14T04:44:41.591Z,5.57
2023-02-14T04:47:09.377Z,6.28
2023-02-14T04:49:36.787Z,6.55
2023-02-14T04:52:04.850Z,5.85
2023-02-14T04:54:32.028Z,5.72
2023-02-14T04:56:59.030Z,5.97
2023-02-14T04:59:26.349Z,6.35
2023-02-14T05:01:53.675Z,5.88
2023-02-14T05:04:20.920Z,6.05
2023-02-14T05:06:47.787Z,6.10
2023-02-14T05:09:14.651Z,5.72
2023-02-14T05:11:41.725Z,6.18
2023-02-14T05:14:08.937Z,6.05
2023-02-14T05:16:35.869Z,6.07
2023-02-14T05:19:02.780Z,10.57
2023-02-14T05:21:33.025Z,7.15
2023-02-14T05:24:01.347Z,6.32
2023-02-14T05:26:28.727Z,6.85
2023-02-14T05:28:56.199Z,6.65
2023-02-14T05:31:23.797Z,6.75
2023-02-14T05:33:51.141Z,6.72
2023-02-14T05:36:18.095Z,7.32
2023-02-14T05:38:45.462Z,6.88
2023-02-14T05:41:12.863Z,7.38
2023-02-14T05:43:40.355Z,7.80
2023-02-14T05:46:07.377Z,7.45
2023-02-14T05:48:34.762Z,6.97
2023-02-14T05:51:08.150Z,8.38
2023-02-14T05:53:35.832Z,8.10
2023-02-14T05:56:03.279Z,7.40
2023-02-14T05:58:30.771Z,7.70
2023-02-14T06:00:59.678Z,8.57
2023-02-14T06:03:26.843Z,10.25
2023-02-14T06:05:53.721Z,15.00
2023-02-14T06:08:20.629Z,9.82
2023-02-14T06:10:47.505Z,8.70
2023-02-14T06:13:14.567Z,8.48
2023-02-14T06:15:41.526Z,9.38
2023-02-14T06:18:08.478Z,9.70
2023-02-14T06:20:36.024Z,7.53
2023-02-14T06:23:03.103Z,8.63
2023-02-14T06:25:30.025Z,8.98
2023-02-14T06:27:58.457Z,8.00
2023-02-14T06:30:25.990Z,8.90
2023-02-14T06:32:53.414Z,8.95
2023-02-14T06:35:20.362Z,9.02
2023-02-14T06:37:47.329Z,9.98
2023-02-14T06:40:14.973Z,8.43
2023-02-14T06:42:41.979Z,8.85
2023-02-14T06:45:09.754Z,8.65
2023-02-14T06:47:36.856Z,9.18
2023-02-14T06:50:05.144Z,8.57
2023-02-14T06:52:35.221Z,9.02
2023-02-14T06:55:02.125Z,8.48
2023-02-14T06:57:29.120Z,8.88
2023-02-14T06:59:56.118Z,8.73
2023-02-14T07:02:25.069Z,9.15
2023-02-14T07:04:52.263Z,8.88
2023-02-14T07:07:19.296Z,9.20
2023-02-14T07:09:46.286Z,7.90
2023-02-14T07:12:13.487Z,9.75
2023-02-14T07:14:40.403Z,9.02
2023-02-14T07:17:07.320Z,8.52
2023-02-14T07:19:35.151Z,9.45
2023-02-14T07:22:02.251Z,9.57
2023-02-14T07:24:30.180Z,9.60
2023-02-14T07:26:57.560Z,9.63
2023-02-14T07:29:24.673Z,10.05
2023-02-14T07:31:51.707Z,11.18
2023-02-14T07:34:18.930Z,11.55
2023-02-14T07:36:45.900Z,10.75
2023-02-14T07:39:12.773Z,13.27
2023-02-14T07:41:39.637Z,13.55
2023-02-14T07:44:10.206Z,13.95
2023-02-14T07:46:37.277Z,13.70
2023-02-14T07:49:04.234Z,14.80
2023-02-14T07:51:31.357Z,14.00
2023-02-14T07:53:58.321Z,14.95
2023-02-14T07:56:25.253Z,13.93
2023-02-14T07:58:52.111Z,15.38
2023-02-14T08:01:19.553Z,15.02
2023-02-14T08:03:49.570Z,14.77
2023-02-14T08:06:21.031Z,14.80
2023-02-14T08:08:48.771Z,14.13
2023-02-14T08:11:35.862Z,14.55
2023-02-14T08:14:04.685Z,14.50
2023-02-14T08:16:34.246Z,13.98
2023-02-14T08:19:02.172Z,13.55
2023-02-14T08:21:29.350Z,13.75
2023-02-14T08:23:56.588Z,14.18
2023-02-14T08:26:24.056Z,13.63
2023-02-14T08:28:51.172Z,13.75
2023-02-14T08:31:36.262Z,13.55
2023-02-14T08:36:32.221Z,12.70
2023-02-14T08:38:59.437Z,14.15
2023-02-14T08:41:26.421Z,13.52
2023-02-14T08:43:53.567Z,13.55
2023-02-14T08:46:20.565Z,13.38
2023-02-14T08:48:49.649Z,13.02
2023-02-14T08:51:17.052Z,12.95
2023-02-14T08:53:44.387Z,14.45
2023-02-14T08:56:14.498Z,13.35
2023-02-14T08:58:41.527Z,12.68
2023-02-14T09:01:15.170Z,13.02
2023-02-14T09:03:42.838Z,12.52
2023-02-14T09:06:14.428Z,13.18
2023-02-14T09:08:41.426Z,12.70
2023-02-14T09:11:14.864Z,12.80
2023-02-14T09:13:46.279Z,13.18
2023-02-14T09:16:17.293Z,13.07
2023-02-14T09:18:46.148Z,12.80
2023-02-14T09:21:18.211Z,12.63
2023-02-14T09:23:45.196Z,12.65
2023-02-14T09:26:15.471Z,13.52
2023-02-14T09:28:43.398Z,12.82
2023-02-14T09:31:20.930Z,12.30
2023-02-14T09:33:50.172Z,12.68
2023-02-14T09:36:17.189Z,12.38
2023-02-14T09:38:44.063Z,11.73
2023-02-14T09:41:40.530Z,13.15
2023-02-14T09:44:32.733Z,12.95
2023-02-14T09:47:23.780Z,12.05
2023-02-14T09:49:56.428Z,11.63
2023-02-14T09:52:30.720Z,12.52
2023-02-14T09:55:01.317Z,12.00
2023-02-14T09:58:02.776Z,12.80
2023-02-14T10:00:39.964Z,12.07
2023-02-14T10:03:40.720Z,12.00
2023-02-14T10:06:51.912Z,12.30
2023-02-14T10:09:21.667Z,12.30
2023-02-14T10:11:49.144Z,12.30
2023-02-14T10:14:25.802Z,12.77
2023-02-14T10:17:08.439Z,12.25
2023-02-14T10:19:52.292Z,12.85
2023-02-14T10:22:26.903Z,12.10
2023-02-14T10:25:15.822Z,11.93
2023-02-14T10:27:46.582Z,13.10
2023-02-14T10:30:23.922Z,12.73
2023-02-14T10:33:05.484Z,13.00
2023-02-14T10:35:50.941Z,13.73
2023-02-14T10:41:10.037Z,12.35
2023-02-14T10:48:49.945Z,11.75
2023-02-14T10:51:44.728Z,12.13
2023-02-14T10:54:26.001Z,11.30
2023-02-14T10:57:52.631Z,11.25
2023-02-14T11:04:52.165Z,11.35
2023-02-14T11:07:21.646Z,10.93
2023-02-14T11:09:48.808Z,11.23
2023-02-14T11:12:37.476Z,11.02
2023-02-14T11:19:59.098Z,10.35
2023-02-14T11:22:34.849Z,10.02
2023-02-14T11:29:16.005Z,10.52
2023-02-14T11:34:27.988Z,11.77
2023-02-14T11:36:54.983Z,10.77
2023-02-14T11:39:28.328Z,10.77
2023-02-14T11:42:00.523Z,11.05
2023-02-14T11:44:31.730Z,10.77
2023-02-14T11:47:41.616Z,11.35
2023-02-14T11:53:06.862Z,10.93
2023-02-14T12:01:33.562Z,10.43
2023-02-14T12:15:34.431Z,10.68
2023-02-14T12:18:41.140Z,11.82
2023-02-14T12:21:26.548Z,11.80
2023-02-14T12:27:52.270Z,11.69
2023-02-14T12:30:26.486Z,12.20
2023-02-14T12:32:58.959Z,12.98
2023-02-14T12:35:34.386Z,12.57
2023-02-14T12:38:09.728Z,10.88
2023-02-14T12:41:09.847Z,10.82
2023-02-14T12:43:55.303Z,10.10
2023-02-14T12:49:49.482Z,11.27
2023-02-14T12:53:05.189Z,12.25
2023-02-14T12:56:06.879Z,12.27
2023-02-14T12:59:05.672Z,10.88
2023-02-14T13:02:03.283Z,11.68
2023-02-14T13:04:47.351Z,11.70
2023-02-14T13:07:25.900Z,11.60
2023-02-14T13:10:54.063Z,11.70
2023-02-14T13:14:04.494Z,11.18
2023-02-14T13:16:58.023Z,10.88
2023-02-14T13:19:34.128Z,10.20
2023-02-14T13:22:04.810Z,11.38
2023-02-14T13:24:49.522Z,11.15
2023-02-14T13:27:24.395Z,17.15
2023-02-14T13:32:28.679Z,9.77
2023-02-14T13:34:56.829Z,11.45
2023-02-14T13:37:27.445Z,10.75
2023-02-14T13:39:59.370Z,10.18
2023-02-14T13:42:48.067Z,11.10
2023-02-14T13:45:30.550Z,10.60
2023-02-14T13:48:19.646Z,10.88
2023-02-14T13:51:17.971Z,10.88
2023-02-14T13:53:49.352Z,10.40
2023-02-14T13:56:16.204Z,11.70
2023-02-14T13:58:53.429Z,10.95
2023-02-14T14:01:50.309Z,11.30
2023-02-14T14:04:30.330Z,12.25
2023-02-14T14:07:03.353Z,10.68
2023-02-14T14:09:42.663Z,11.23
2023-02-14T14:12:28.020Z,11.00
2023-02-14T14:18:14.402Z,10.45
2023-02-14T14:20:45.697Z,11.85
2023-02-14T14:23:37.343Z,10.82
2023-02-14T14:26:40.468Z,10.68
2023-02-14T14:29:24.171Z,10.35
2023-02-14T14:31:55.732Z,10.15
2023-02-14T14:34:27.624Z,10.27
2023-02-14T14:37:17.165Z,10.48
2023-02-14T14:39:56.038Z,10.48
2023-02-14T14:42:27.732Z,9.88
2023-02-14T14:45:02.662Z,10.38
2023-02-14T14:50:14.036Z,11.15
2023-02-14T14:52:47.330Z,11.43
2023-02-14T14:55:32.828Z,11.50
2023-02-14T14:58:05.332Z,11.63
2023-02-14T15:00:38.741Z,11.15
2023-02-14T15:03:18.067Z,10.95
2023-02-14T15:05:48.898Z,10.60
2023-02-14T15:08:32.063Z,10.05
2023-02-14T15:11:46.149Z,10.02
2023-02-14T15:14:20.263Z,10.85
2023-02-14T15:16:53.340Z,10.60
2023-02-14T15:19:34.713Z,10.57
2023-02-14T15:22:06.293Z,10.23
2023-02-14T15:24:34.973Z,10.77
2023-02-14T15:27:03.018Z,9.77
2023-02-14T15:29:32.936Z,9.30
2023-02-14T15:32:04.315Z,10.27
2023-02-14T15:34:36.098Z,9.93
2023-02-14T15:37:06.334Z,9.63
2023-02-14T15:39:43.001Z,10.18
2023-02-14T15:42:41.012Z,10.20
2023-02-14T15:45:27.608Z,10.02
2023-02-14T15:48:03.750Z,9.93
2023-02-14T15:51:05.037Z,10.20
2023-02-14T15:53:53.458Z,10.32
2023-02-14T15:56:29.199Z,10.15
2023-02-14T15:59:04.008Z,9.80
2023-02-14T16:01:34.004Z,9.93
2023-02-14T16:04:05.982Z,9.30
2023-02-14T16:06:46.804Z,9.82
2023-02-14T16:09:28.450Z,9.52
2023-02-14T16:11:55.552Z,9.63
2023-02-14T16:14:28.996Z,8.32
2023-02-14T16:17:15.176Z,8.77
2023-02-14T16:19:46.484Z,10.18
2023-02-14T16:22:32.165Z,10.07
2023-02-14T16:25:00.520Z,10.95
2023-02-14T16:27:27.582Z,12.07
2023-02-14T16:29:54.567Z,11.80
2023-02-14T16:32:24.226Z,11.80
2023-02-14T16:34:51.551Z,12.90
2023-02-14T16:37:39.313Z,12.98
2023-02-14T16:40:15.259Z,11.23
2023-02-14T16:42:43.076Z,10.85
2023-02-14T16:45:20.625Z,10.98
2023-02-14T16:47:48.864Z,10.73
2023-02-14T16:50:17.620Z,11.90
2023-02-14T16:52:48.797Z,11.10
2023-02-14T16:55:19.797Z,10.82
2023-02-14T16:57:50.705Z,10.85
2023-02-14T17:00:28.317Z,10.95
2023-02-14T17:03:06.173Z,10.80
2023-02-14T17:05:35.947Z,10.93
2023-02-14T17:08:05.741Z,10.60
2023-02-14T17:10:33.718Z,11.38
2023-02-14T17:13:03.068Z,10.75
2023-02-14T17:15:31.287Z,11.07
2023-02-14T17:18:07.782Z,12.35
2023-02-14T17:20:35.764Z,11.13
2023-02-14T17:23:03.519Z,12.55
2023-02-14T17:25:30.760Z,12.38
2023-02-14T17:27:57.975Z,13.75
2023-02-14T17:30:25.648Z,13.05
2023-02-14T17:32:53.233Z,13.60
2023-02-14T17:35:20.503Z,13.10
2023-02-14T17:37:47.697Z,12.63
2023-02-14T17:40:15.146Z,12.95
2023-02-14T17:42:42.580Z,17.50
2023-02-14T17:45:11.691Z,19.08
2023-02-14T17:47:40.932Z,15.27
2023-02-14T17:50:08.901Z,14.95
2023-02-14T17:52:35.967Z,17.23
2023-02-14T17:55:03.798Z,15.07
2023-02-14T17:57:30.904Z,12.85
2023-02-14T17:59:58.838Z,14.32
2023-02-14T18:02:26.186Z,14.48
2023-02-14T18:04:53.445Z,13.43
2023-02-14T18:07:20.916Z,14.00
2023-02-14T18:09:47.845Z,13.40
2023-02-14T18:12:15.270Z,14.82
2023-02-14T18:14:42.976Z,13.75
2023-02-14T18:17:13.639Z,12.95
2023-02-14T18:19:40.758Z,14.38
2023-02-14T18:22:07.827Z,15.25
2023-02-14T18:24:35.010Z,15.48
2023-02-14T18:27:02.932Z,15.00
2023-02-14T18:29:31.779Z,15.70
2023-02-14T18:31:59.208Z,14.75
2023-02-14T18:34:26.325Z,15.48
2023-02-14T18:36:53.343Z,15.07
2023-02-14T18:39:20.769Z,14.18
2023-02-14T18:41:47.731Z,13.77
2023-02-14T18:44:14.780Z,13.82
2023-02-14T18:46:43.962Z,13.43
2023-02-14T18:49:13.265Z,14.90
2023-02-14T18:51:43.627Z,14.73
2023-02-14T18:54:10.582Z,16.73
2023-02-14T18:56:38.652Z,15.30
2023-02-14T18:59:09.810Z,15.70
2023-02-14T19:01:42.351Z,14.63
2023-02-14T19:04:12.292Z,16.58
2023-02-14T19:06:41.385Z,15.55
2023-02-14T19:09:15.093Z,14.00
2023-02-14T19:11:42.940Z,15.07
2023-02-14T19:14:10.688Z,16.13
2023-02-14T19:16:50.236Z,19.30
2023-02-14T19:19:18.015Z,20.08
2023-02-14T19:21:45.122Z,21.67
2023-02-14T19:24:12.404Z,19.95
2023-02-14T19:26:40.729Z,21.75
2023-02-14T19:29:14.965Z,22.60
2023-02-14T19:31:48.215Z,19.83
2023-02-14T19:34:27.955Z,18.40
2023-02-14T19:36:59.080Z,16.35
2023-02-14T19:39:31.358Z,16.10
2023-02-14T19:42:00.136Z,16.23
2023-02-14T19:44:29.277Z,16.23
2023-02-14T19:46:56.622Z,16.17
2023-02-14T19:49:24.182Z,15.65
2023-02-14T19:51:51.426Z,15.13
2023-02-14T19:54:19.547Z,14.32
2023-02-14T19:56:47.988Z,14.73
2023-02-14T19:59:20.227Z,14.05
2023-02-14T20:01:51.967Z,15.38
2023-02-14T20:04:25.692Z,14.80
2023-02-14T20:06:53.954Z,16.08
2023-02-14T20:09:22.805Z,19.60
2023-02-14T20:11:55.884Z,23.33
2023-02-14T20:14:49.776Z,23.65
2023-02-14T20:17:19.334Z,26.77
2023-02-14T20:19:46.592Z,23.30
2023-02-14T20:22:13.648Z,26.15
2023-02-14T20:24:40.552Z,26.33
2023-02-14T20:27:08.100Z,26.10
2023-02-14T20:29:35.249Z,30.00
2023-02-14T20:32:04.887Z,28.73
2023-02-14T20:34:32.109Z,24.40
2023-02-14T20:37:00.156Z,27.10
2023-02-14T20:39:34.851Z,26.83
2023-02-14T20:42:02.473Z,27.95
2023-02-14T20:44:29.689Z,29.65
2023-02-14T20:46:57.037Z,27.10
2023-02-14T20:49:27.995Z,28.15
2023-02-14T20:51:56.011Z,28.25
2023-02-14T20:54:27.027Z,30.70
2023-02-14T20:56:54.490Z,29.88
2023-02-14T20:59:29.077Z,28.92
2023-02-14T21:01:59.232Z,27.30
2023-02-14T21:04:27.060Z,25.70
2023-02-14T21:06:54.541Z,28.38
2023-02-14T21:09:21.564Z,28.48
2023-02-14T21:11:49.539Z,26.67
2023-02-14T21:14:17.297Z,26.92
2023-02-14T21:16:44.341Z,27.67
2023-02-14T21:19:11.255Z,28.67
2023-02-14T21:21:38.850Z,28.17
2023-02-14T21:24:11.129Z,29.15
2023-02-14T21:26:39.104Z,29.73
2023-02-14T21:29:07.017Z,31.45
2023-02-14T21:31:35.374Z,31.35
2023-02-14T21:34:04.745Z,29.13
2023-02-14T21:36:37.451Z,29.83
2023-02-14T21:39:06.404Z,26.38
2023-02-14T21:41:35.127Z,24.05
2023-02-14T21:44:03.775Z,23.70
2023-02-14T21:46:36.770Z,22.77
2023-02-14T21:49:24.392Z,22.52
2023-02-14T21:51:51.564Z,20.33
2023-02-14T21:54:18.440Z,19.30
2023-02-14T21:56:45.528Z,17.52
2023-02-14T21:59:13.771Z,18.13
2023-02-14T22:01:42.667Z,19.73
2023-02-14T22:04:12.429Z,18.05
2023-02-14T22:06:41.652Z,19.38
2023-02-14T22:09:09.737Z,17.60
2023-02-14T22:11:37.161Z,19.35
2023-02-14T22:14:04.667Z,17.63
2023-02-14T22:16:32.031Z,16.33
2023-02-14T22:18:59.027Z,16.63
2023-02-14T22:21:27.171Z,17.15
2023-02-14T22:23:55.741Z,16.83
2023-02-14T22:26:26.262Z,17.63
2023-02-14T22:28:59.576Z,18.10
2023-02-14T22:31:32.209Z,16.20
2023-02-14T22:33:59.201Z,17.42
2023-02-14T22:36:26.305Z,17.95
2023-02-14T22:38:53.281Z,18.67
2023-02-14T22:41:23.961Z,18.73
2023-02-14T22:43:53.557Z,19.33
2023-02-14T22:46:27.548Z,20.60
2023-02-14T22:48:56.349Z,20.30
2023-02-14T22:51:30.630Z,18.85
2023-02-14T22:54:03.767Z,18.70
2023-02-14T22:56:38.799Z,18.75
2023-02-14T22:59:23.054Z,19.13
2023-02-14T23:01:52.131Z,19.30
2023-02-14T23:04:22.512Z,18.58
2023-02-14T23:06:50.342Z,18.50
2023-02-14T23:09:18.546Z,17.98
2023-02-14T23:11:47.118Z,17.63
2023-02-14T23:14:35.844Z,17.23
2023-02-14T23:17:22.891Z,17.60
2023-02-14T23:20:08.146Z,17.13
2023-02-14T23:25:11.595Z,16.38
2023-02-14T23:27:43.304Z,15.60
2023-02-14T23:30:17.680Z,16.45
2023-02-14T23:32:45.380Z,15.77
2023-02-14T23:35:12.505Z,14.02
2023-02-14T23:37:39.723Z,17.05
2023-02-14T23:40:07.768Z,16.38
2023-02-14T23:42:34.794Z,15.60
2023-02-14T23:45:21.986Z,15.77
2023-02-14T23:47:48.997Z,16.27
2023-02-14T23:50:16.025Z,15.93
2023-02-14T23:52:44.439Z,16.30
2023-02-14T23:55:11.839Z,16.33
2023-02-14T23:57:38.789Z,16.13
